sensor_id;sensor_type;location;lat;lon;timestamp;temperature;humidity
8565;DHT22;4320;51.498;6.556;2022-07-04T00:01:21;17.60;1.00
8565;DHT22;4320;51.498;6.556;2022-07-04T00:03:47;17.60;1.00
8565;DHT22;4320;51.498;6.556;2022-07-04T00:06:12;17.50;1.00
8565;DHT22;4320;51.498;6.556;2022-07-04T00:08:38;17.60;1.00
8565;DHT22;4320;51.498;6.556;2022-07-04T00:11:04;17.60;1.00
8565;DHT22;4320;51.498;6.556;2022-07-04T00:13:30;17.50;1.00
8565;DHT22;4320;51.498;6.556;2022-07-04T00:15:55;17.50;1.00
8565;DHT22;4320;51.498;6.556;2022-07-04T00:18:21;17.50;1.00
8565;DHT22;4320;51.498;6.556;2022-07-04T00:20:47;17.50;1.00
8565;DHT22;4320;51.498;6.556;2022-07-04T00:23:13;17.50;1.00
8565;DHT22;4320;51.498;6.556;2022-07-04T00:25:39;17.50;1.00
8565;DHT22;4320;51.498;6.556;2022-07-04T00:28:05;17.50;1.00
8565;DHT22;4320;51.498;6.556;2022-07-04T00:30:30;17.40;1.00
8565;DHT22;4320;51.498;6.556;2022-07-04T00:32:56;17.40;1.00
8565;DHT22;4320;51.498;6.556;2022-07-04T00:35:22;17.40;1.00
8565;DHT22;4320;51.498;6.556;2022-07-04T00:37:47;17.40;1.00
8565;DHT22;4320;51.498;6.556;2022-07-04T00:40:13;17.30;1.00
8565;DHT22;4320;51.498;6.556;2022-07-04T00:42:39;17.30;1.00
8565;DHT22;4320;51.498;6.556;2022-07-04T00:45:05;17.30;1.00
8565;DHT22;4320;51.498;6.556;2022-07-04T00:47:30;17.30;1.00
8565;DHT22;4320;51.498;6.556;2022-07-04T00:49:56;17.20;1.00
8565;DHT22;4320;51.498;6.556;2022-07-04T00:52:22;17.20;1.00
8565;DHT22;4320;51.498;6.556;2022-07-04T00:54:48;17.20;1.00
8565;DHT22;4320;51.498;6.556;2022-07-04T00:57:14;17.20;1.00
8565;DHT22;4320;51.498;6.556;2022-07-04T00:59:40;17.10;1.00
8565;DHT22;4320;51.498;6.556;2022-07-04T01:02:06;17.00;1.00
8565;DHT22;4320;51.498;6.556;2022-07-04T01:04:32;17.00;1.00
8565;DHT22;4320;51.498;6.556;2022-07-04T01:06:58;16.90;1.00
8565;DHT22;4320;51.498;6.556;2022-07-04T01:09:23;16.90;1.00
8565;DHT22;4320;51.498;6.556;2022-07-04T01:11:50;16.90;1.00
8565;DHT22;4320;51.498;6.556;2022-07-04T01:14:16;17.00;1.00
8565;DHT22;4320;51.498;6.556;2022-07-04T01:16:42;17.00;1.00
8565;DHT22;4320;51.498;6.556;2022-07-04T01:19:07;17.00;1.00
8565;DHT22;4320;51.498;6.556;2022-07-04T01:21:33;16.90;1.00
8565;DHT22;4320;51.498;6.556;2022-07-04T01:23:59;16.90;1.00
8565;DHT22;4320;51.498;6.556;2022-07-04T01:26:24;17.00;1.00
8565;DHT22;4320;51.498;6.556;2022-07-04T01:28:50;17.10;1.00
8565;DHT22;4320;51.498;6.556;2022-07-04T01:31:16;17.00;1.00
8565;DHT22;4320;51.498;6.556;2022-07-04T01:33:41;16.80;1.00
8565;DHT22;4320;51.498;6.556;2022-07-04T01:36:07;16.80;1.00
8565;DHT22;4320;51.498;6.556;2022-07-04T01:38:33;16.80;1.00
8565;DHT22;4320;51.498;6.556;2022-07-04T01:40:58;16.90;1.00
8565;DHT22;4320;51.498;6.556;2022-07-04T01:43:24;16.90;1.00
8565;DHT22;4320;51.498;6.556;2022-07-04T01:45:50;16.80;1.00
8565;DHT22;4320;51.498;6.556;2022-07-04T01:48:15;16.70;1.00
8565;DHT22;4320;51.498;6.556;2022-07-04T01:50:41;16.70;1.00
8565;DHT22;4320;51.498;6.556;2022-07-04T01:53:07;16.70;1.00
8565;DHT22;4320;51.498;6.556;2022-07-04T01:55:32;16.70;1.00
8565;DHT22;4320;51.498;6.556;2022-07-04T01:57:58;16.70;1.00
8565;DHT22;4320;51.498;6.556;2022-07-04T02:00:25;16.80;1.00
8565;DHT22;4320;51.498;6.556;2022-07-04T02:03:09;16.70;1.00
8565;DHT22;4320;51.498;6.556;2022-07-04T02:05:35;16.70;1.00
8565;DHT22;4320;51.498;6.556;2022-07-04T02:08:03;16.70;1.00
8565;DHT22;4320;51.498;6.556;2022-07-04T02:10:29;16.60;1.00
8565;DHT22;4320;51.498;6.556;2022-07-04T02:12:54;16.60;1.00
8565;DHT22;4320;51.498;6.556;2022-07-04T02:15:33;16.60;1.00
8565;DHT22;4320;51.498;6.556;2022-07-04T02:18:01;16.60;1.00
8565;DHT22;4320;51.498;6.556;2022-07-04T02:20:27;16.60;1.00
8565;DHT22;4320;51.498;6.556;2022-07-04T02:22:54;16.60;1.00
8565;DHT22;4320;51.498;6.556;2022-07-04T02:25:20;16.70;1.00
8565;DHT22;4320;51.498;6.556;2022-07-04T02:27:45;16.60;1.00
8565;DHT22;4320;51.498;6.556;2022-07-04T02:30:11;16.70;1.00
8565;DHT22;4320;51.498;6.556;2022-07-04T02:32:38;16.60;1.00
8565;DHT22;4320;51.498;6.556;2022-07-04T02:35:04;16.60;1.00
8565;DHT22;4320;51.498;6.556;2022-07-04T02:37:30;16.60;1.00
8565;DHT22;4320;51.498;6.556;2022-07-04T02:39:56;16.60;1.00
8565;DHT22;4320;51.498;6.556;2022-07-04T02:42:22;16.60;1.00
8565;DHT22;4320;51.498;6.556;2022-07-04T02:44:47;16.60;1.00
8565;DHT22;4320;51.498;6.556;2022-07-04T02:47:14;16.60;1.00
8565;DHT22;4320;51.498;6.556;2022-07-04T02:49:39;16.50;1.00
8565;DHT22;4320;51.498;6.556;2022-07-04T02:52:05;16.50;1.00
8565;DHT22;4320;51.498;6.556;2022-07-04T02:54:31;16.50;1.00
8565;DHT22;4320;51.498;6.556;2022-07-04T02:56:57;16.50;1.00
8565;DHT22;4320;51.498;6.556;2022-07-04T02:59:23;16.40;1.00
8565;DHT22;4320;51.498;6.556;2022-07-04T03:01:50;16.40;1.00
8565;DHT22;4320;51.498;6.556;2022-07-04T03:04:15;16.40;1.00
8565;DHT22;4320;51.498;6.556;2022-07-04T03:06:41;16.40;1.00
8565;DHT22;4320;51.498;6.556;2022-07-04T03:09:08;16.30;1.00
8565;DHT22;4320;51.498;6.556;2022-07-04T03:11:34;16.30;1.00
8565;DHT22;4320;51.498;6.556;2022-07-04T03:13:59;16.30;1.00
8565;DHT22;4320;51.498;6.556;2022-07-04T03:16:25;16.30;1.00
8565;DHT22;4320;51.498;6.556;2022-07-04T03:18:51;16.40;1.00
8565;DHT22;4320;51.498;6.556;2022-07-04T03:21:16;16.40;1.00
8565;DHT22;4320;51.498;6.556;2022-07-04T03:23:42;16.30;1.00
8565;DHT22;4320;51.498;6.556;2022-07-04T03:26:08;16.30;1.00
8565;DHT22;4320;51.498;6.556;2022-07-04T03:28:34;16.30;1.00
8565;DHT22;4320;51.498;6.556;2022-07-04T03:31:00;16.30;1.00
8565;DHT22;4320;51.498;6.556;2022-07-04T03:33:26;16.10;1.00
8565;DHT22;4320;51.498;6.556;2022-07-04T03:35:51;16.20;1.00
8565;DHT22;4320;51.498;6.556;2022-07-04T03:38:17;16.10;1.00
8565;DHT22;4320;51.498;6.556;2022-07-04T03:40:43;16.10;1.00
8565;DHT22;4320;51.498;6.556;2022-07-04T03:43:08;16.10;1.00
8565;DHT22;4320;51.498;6.556;2022-07-04T03:45:34;16.00;1.00
8565;DHT22;4320;51.498;6.556;2022-07-04T03:48:00;15.80;1.00
8565;DHT22;4320;51.498;6.556;2022-07-04T03:50:28;15.70;1.00
8565;DHT22;4320;51.498;6.556;2022-07-04T03:52:54;15.80;1.00
8565;DHT22;4320;51.498;6.556;2022-07-04T03:55:20;15.90;1.00
8565;DHT22;4320;51.498;6.556;2022-07-04T03:57:46;15.90;1.00
8565;DHT22;4320;51.498;6.556;2022-07-04T04:00:12;16.00;1.00
8565;DHT22;4320;51.498;6.556;2022-07-04T04:02:38;16.10;1.00
8565;DHT22;4320;51.498;6.556;2022-07-04T04:05:04;16.10;1.00
8565;DHT22;4320;51.498;6.556;2022-07-04T04:07:49;16.10;1.00
8565;DHT22;4320;51.498;6.556;2022-07-04T04:10:14;16.10;1.00
8565;DHT22;4320;51.498;6.556;2022-07-04T04:12:40;16.10;1.00
8565;DHT22;4320;51.498;6.556;2022-07-04T04:15:06;16.10;1.00
8565;DHT22;4320;51.498;6.556;2022-07-04T04:17:32;16.10;1.00
8565;DHT22;4320;51.498;6.556;2022-07-04T04:19:57;16.10;1.00
8565;DHT22;4320;51.498;6.556;2022-07-04T04:22:23;16.10;1.00
8565;DHT22;4320;51.498;6.556;2022-07-04T04:24:49;16.20;1.00
8565;DHT22;4320;51.498;6.556;2022-07-04T04:27:14;16.10;1.00
8565;DHT22;4320;51.498;6.556;2022-07-04T04:29:40;16.10;1.00
8565;DHT22;4320;51.498;6.556;2022-07-04T04:32:06;16.10;1.00
8565;DHT22;4320;51.498;6.556;2022-07-04T04:34:32;16.30;1.00
8565;DHT22;4320;51.498;6.556;2022-07-04T04:36:59;17.40;1.00
8565;DHT22;4320;51.498;6.556;2022-07-04T04:39:25;18.50;1.00
8565;DHT22;4320;51.498;6.556;2022-07-04T04:41:50;19.30;1.00
8565;DHT22;4320;51.498;6.556;2022-07-04T04:44:16;19.60;1.00
8565;DHT22;4320;51.498;6.556;2022-07-04T04:46:42;19.50;1.00
8565;DHT22;4320;51.498;6.556;2022-07-04T04:49:07;19.00;1.00
8565;DHT22;4320;51.498;6.556;2022-07-04T04:51:33;18.40;1.00
8565;DHT22;4320;51.498;6.556;2022-07-04T04:53:58;18.00;1.00
8565;DHT22;4320;51.498;6.556;2022-07-04T04:56:24;17.70;1.00
8565;DHT22;4320;51.498;6.556;2022-07-04T04:58:50;17.50;1.00
8565;DHT22;4320;51.498;6.556;2022-07-04T05:01:16;17.40;1.00
8565;DHT22;4320;51.498;6.556;2022-07-04T05:03:42;17.30;1.00
8565;DHT22;4320;51.498;6.556;2022-07-04T05:06:08;17.20;1.00
8565;DHT22;4320;51.498;6.556;2022-07-04T05:08:33;17.20;1.00
8565;DHT22;4320;51.498;6.556;2022-07-04T05:10:59;17.40;1.00
8565;DHT22;4320;51.498;6.556;2022-07-04T05:13:25;17.50;1.00
8565;DHT22;4320;51.498;6.556;2022-07-04T05:15:50;17.40;1.00
8565;DHT22;4320;51.498;6.556;2022-07-04T05:18:16;17.40;1.00
8565;DHT22;4320;51.498;6.556;2022-07-04T05:20:42;17.20;1.00
8565;DHT22;4320;51.498;6.556;2022-07-04T05:23:08;17.20;1.00
8565;DHT22;4320;51.498;6.556;2022-07-04T05:25:33;17.10;1.00
8565;DHT22;4320;51.498;6.556;2022-07-04T05:27:59;17.20;1.00
8565;DHT22;4320;51.498;6.556;2022-07-04T05:30:25;17.20;1.00
8565;DHT22;4320;51.498;6.556;2022-07-04T05:32:51;17.30;1.00
8565;DHT22;4320;51.498;6.556;2022-07-04T05:35:16;17.40;1.00
8565;DHT22;4320;51.498;6.556;2022-07-04T05:37:42;17.40;1.00
8565;DHT22;4320;51.498;6.556;2022-07-04T05:40:09;17.50;1.00
8565;DHT22;4320;51.498;6.556;2022-07-04T05:42:35;17.70;1.00
8565;DHT22;4320;51.498;6.556;2022-07-04T05:45:01;17.70;1.00
8565;DHT22;4320;51.498;6.556;2022-07-04T05:47:27;17.70;1.00
8565;DHT22;4320;51.498;6.556;2022-07-04T05:49:52;17.80;1.00
8565;DHT22;4320;51.498;6.556;2022-07-04T05:52:18;17.80;1.00
8565;DHT22;4320;51.498;6.556;2022-07-04T05:54:43;17.80;1.00
8565;DHT22;4320;51.498;6.556;2022-07-04T05:57:12;17.70;1.00
8565;DHT22;4320;51.498;6.556;2022-07-04T05:59:44;17.80;1.00
8565;DHT22;4320;51.498;6.556;2022-07-04T06:02:11;17.80;1.00
8565;DHT22;4320;51.498;6.556;2022-07-04T06:04:36;17.90;1.00
8565;DHT22;4320;51.498;6.556;2022-07-04T06:07:02;18.00;1.00
8565;DHT22;4320;51.498;6.556;2022-07-04T06:09:28;18.10;1.00
8565;DHT22;4320;51.498;6.556;2022-07-04T06:11:54;18.20;1.00
8565;DHT22;4320;51.498;6.556;2022-07-04T06:14:19;18.10;1.00
8565;DHT22;4320;51.498;6.556;2022-07-04T06:16:45;18.20;1.00
8565;DHT22;4320;51.498;6.556;2022-07-04T06:19:10;18.10;1.00
8565;DHT22;4320;51.498;6.556;2022-07-04T06:21:36;18.10;1.00
8565;DHT22;4320;51.498;6.556;2022-07-04T06:24:02;18.10;1.00
8565;DHT22;4320;51.498;6.556;2022-07-04T06:26:28;18.20;1.00
8565;DHT22;4320;51.498;6.556;2022-07-04T06:28:55;18.30;1.00
8565;DHT22;4320;51.498;6.556;2022-07-04T06:31:21;18.30;1.00
8565;DHT22;4320;51.498;6.556;2022-07-04T06:33:47;18.50;1.00
8565;DHT22;4320;51.498;6.556;2022-07-04T06:36:31;18.50;1.00
8565;DHT22;4320;51.498;6.556;2022-07-04T06:39:05;18.60;1.00
8565;DHT22;4320;51.498;6.556;2022-07-04T06:41:31;18.60;1.00
8565;DHT22;4320;51.498;6.556;2022-07-04T06:44:05;18.60;1.00
8565;DHT22;4320;51.498;6.556;2022-07-04T06:46:31;18.60;1.00
8565;DHT22;4320;51.498;6.556;2022-07-04T06:48:57;18.60;1.00
8565;DHT22;4320;51.498;6.556;2022-07-04T06:51:23;18.70;1.00
8565;DHT22;4320;51.498;6.556;2022-07-04T06:53:49;18.70;1.00
8565;DHT22;4320;51.498;6.556;2022-07-04T06:56:16;18.80;1.00
8565;DHT22;4320;51.498;6.556;2022-07-04T06:58:41;18.80;1.00
8565;DHT22;4320;51.498;6.556;2022-07-04T07:01:07;18.90;1.00
8565;DHT22;4320;51.498;6.556;2022-07-04T07:03:33;18.80;1.00
8565;DHT22;4320;51.498;6.556;2022-07-04T07:05:59;18.80;1.00
8565;DHT22;4320;51.498;6.556;2022-07-04T07:08:25;18.80;1.00
8565;DHT22;4320;51.498;6.556;2022-07-04T07:10:51;18.80;1.00
8565;DHT22;4320;51.498;6.556;2022-07-04T07:13:17;18.80;1.00
8565;DHT22;4320;51.498;6.556;2022-07-04T07:15:43;18.80;1.00
8565;DHT22;4320;51.498;6.556;2022-07-04T07:18:08;18.80;1.00
8565;DHT22;4320;51.498;6.556;2022-07-04T07:20:34;18.80;1.00
8565;DHT22;4320;51.498;6.556;2022-07-04T07:23:03;18.90;1.00
8565;DHT22;4320;51.498;6.556;2022-07-04T07:25:29;19.00;1.00
8565;DHT22;4320;51.498;6.556;2022-07-04T07:27:56;19.10;1.00
8565;DHT22;4320;51.498;6.556;2022-07-04T07:30:22;19.10;1.00
8565;DHT22;4320;51.498;6.556;2022-07-04T07:32:47;19.10;1.00
8565;DHT22;4320;51.498;6.556;2022-07-04T07:35:13;19.20;1.00
8565;DHT22;4320;51.498;6.556;2022-07-04T07:37:40;19.30;1.00
8565;DHT22;4320;51.498;6.556;2022-07-04T07:40:07;19.50;1.00
8565;DHT22;4320;51.498;6.556;2022-07-04T07:42:32;19.40;1.00
8565;DHT22;4320;51.498;6.556;2022-07-04T07:44:59;19.40;1.00
8565;DHT22;4320;51.498;6.556;2022-07-04T07:47:24;19.50;1.00
8565;DHT22;4320;51.498;6.556;2022-07-04T07:49:50;19.60;1.00
8565;DHT22;4320;51.498;6.556;2022-07-04T07:52:16;19.60;1.00
8565;DHT22;4320;51.498;6.556;2022-07-04T07:54:43;19.70;1.00
8565;DHT22;4320;51.498;6.556;2022-07-04T07:57:08;19.70;1.00
8565;DHT22;4320;51.498;6.556;2022-07-04T07:59:34;19.70;1.00
8565;DHT22;4320;51.498;6.556;2022-07-04T08:01:59;19.80;1.00
8565;DHT22;4320;51.498;6.556;2022-07-04T08:04:25;20.00;1.00
8565;DHT22;4320;51.498;6.556;2022-07-04T08:07:07;20.20;1.00
8565;DHT22;4320;51.498;6.556;2022-07-04T08:09:34;20.40;1.00
8565;DHT22;4320;51.498;6.556;2022-07-04T08:12:01;20.50;1.00
8565;DHT22;4320;51.498;6.556;2022-07-04T08:14:28;20.70;1.00
8565;DHT22;4320;51.498;6.556;2022-07-04T08:16:55;21.00;1.00
8565;DHT22;4320;51.498;6.556;2022-07-04T08:19:20;20.90;1.00
8565;DHT22;4320;51.498;6.556;2022-07-04T08:21:46;20.90;1.00
8565;DHT22;4320;51.498;6.556;2022-07-04T08:24:16;20.80;1.00
8565;DHT22;4320;51.498;6.556;2022-07-04T08:26:42;20.70;1.00
8565;DHT22;4320;51.498;6.556;2022-07-04T08:29:08;20.60;1.00
8565;DHT22;4320;51.498;6.556;2022-07-04T08:31:34;20.60;1.00
8565;DHT22;4320;51.498;6.556;2022-07-04T08:34:00;20.60;1.00
8565;DHT22;4320;51.498;6.556;2022-07-04T08:36:25;20.70;1.00
8565;DHT22;4320;51.498;6.556;2022-07-04T08:38:51;20.80;1.00
8565;DHT22;4320;51.498;6.556;2022-07-04T08:41:18;20.90;1.00
8565;DHT22;4320;51.498;6.556;2022-07-04T08:43:45;20.80;1.00
8565;DHT22;4320;51.498;6.556;2022-07-04T08:46:14;20.60;1.00
8565;DHT22;4320;51.498;6.556;2022-07-04T08:48:42;20.60;1.00
8565;DHT22;4320;51.498;6.556;2022-07-04T08:51:16;20.40;1.00
8565;DHT22;4320;51.498;6.556;2022-07-04T08:53:49;20.60;1.00
8565;DHT22;4320;51.498;6.556;2022-07-04T08:56:20;20.70;1.00
8565;DHT22;4320;51.498;6.556;2022-07-04T08:59:05;20.60;1.00
8565;DHT22;4320;51.498;6.556;2022-07-04T09:01:33;20.50;1.00
8565;DHT22;4320;51.498;6.556;2022-07-04T09:04:00;20.60;1.00
8565;DHT22;4320;51.498;6.556;2022-07-04T09:06:26;20.60;1.00
8565;DHT22;4320;51.498;6.556;2022-07-04T09:08:54;20.70;1.00
8565;DHT22;4320;51.498;6.556;2022-07-04T09:11:20;20.90;1.00
8565;DHT22;4320;51.498;6.556;2022-07-04T09:13:46;21.00;1.00
8565;DHT22;4320;51.498;6.556;2022-07-04T09:16:12;21.00;1.00
8565;DHT22;4320;51.498;6.556;2022-07-04T09:18:38;21.00;1.00
8565;DHT22;4320;51.498;6.556;2022-07-04T09:21:06;21.10;1.00
8565;DHT22;4320;51.498;6.556;2022-07-04T09:23:34;21.10;1.00
8565;DHT22;4320;51.498;6.556;2022-07-04T09:26:21;21.20;1.00
8565;DHT22;4320;51.498;6.556;2022-07-04T09:28:57;21.30;1.00
8565;DHT22;4320;51.498;6.556;2022-07-04T09:31:28;21.40;1.00
8565;DHT22;4320;51.498;6.556;2022-07-04T09:34:01;21.40;1.00
8565;DHT22;4320;51.498;6.556;2022-07-04T09:36:31;21.40;1.00
8565;DHT22;4320;51.498;6.556;2022-07-04T09:41:58;21.40;1.00
8565;DHT22;4320;51.498;6.556;2022-07-04T09:44:26;21.50;1.00
8565;DHT22;4320;51.498;6.556;2022-07-04T09:46:52;21.50;1.00
8565;DHT22;4320;51.498;6.556;2022-07-04T09:49:19;21.50;1.00
8565;DHT22;4320;51.498;6.556;2022-07-04T09:51:47;21.60;1.00
8565;DHT22;4320;51.498;6.556;2022-07-04T09:54:26;21.60;1.00
8565;DHT22;4320;51.498;6.556;2022-07-04T09:56:56;21.60;1.00
8565;DHT22;4320;51.498;6.556;2022-07-04T09:59:23;21.60;1.00
8565;DHT22;4320;51.498;6.556;2022-07-04T10:01:49;21.60;1.00
8565;DHT22;4320;51.498;6.556;2022-07-04T10:04:15;21.60;1.00
8565;DHT22;4320;51.498;6.556;2022-07-04T10:06:42;21.60;1.00
8565;DHT22;4320;51.498;6.556;2022-07-04T10:09:13;21.70;1.00
8565;DHT22;4320;51.498;6.556;2022-07-04T10:11:41;21.70;1.00
8565;DHT22;4320;51.498;6.556;2022-07-04T10:14:09;21.90;1.00
8565;DHT22;4320;51.498;6.556;2022-07-04T10:16:37;22.00;1.00
8565;DHT22;4320;51.498;6.556;2022-07-04T10:19:03;22.10;1.00
8565;DHT22;4320;51.498;6.556;2022-07-04T10:21:30;22.20;1.00
8565;DHT22;4320;51.498;6.556;2022-07-04T10:23:56;22.30;1.00
8565;DHT22;4320;51.498;6.556;2022-07-04T10:26:23;22.40;1.00
8565;DHT22;4320;51.498;6.556;2022-07-04T10:28:50;22.50;1.00
8565;DHT22;4320;51.498;6.556;2022-07-04T10:31:18;22.70;1.00
8565;DHT22;4320;51.498;6.556;2022-07-04T10:33:44;23.00;1.00
8565;DHT22;4320;51.498;6.556;2022-07-04T10:36:21;23.30;1.00
8565;DHT22;4320;51.498;6.556;2022-07-04T10:38:53;23.30;1.00
8565;DHT22;4320;51.498;6.556;2022-07-04T10:41:20;23.30;1.00
8565;DHT22;4320;51.498;6.556;2022-07-04T10:43:59;23.30;1.00
8565;DHT22;4320;51.498;6.556;2022-07-04T10:48:57;23.30;1.00
8565;DHT22;4320;51.498;6.556;2022-07-04T10:51:42;23.40;1.00
8565;DHT22;4320;51.498;6.556;2022-07-04T10:54:16;23.50;1.00
8565;DHT22;4320;51.498;6.556;2022-07-04T10:56:52;23.40;1.00
8565;DHT22;4320;51.498;6.556;2022-07-04T10:59:23;23.40;1.00
8565;DHT22;4320;51.498;6.556;2022-07-04T11:01:53;23.40;1.00
8565;DHT22;4320;51.498;6.556;2022-07-04T11:18:12;23.80;1.00
8565;DHT22;4320;51.498;6.556;2022-07-04T11:20:44;23.80;1.00
8565;DHT22;4320;51.498;6.556;2022-07-04T11:23:11;23.90;1.00
8565;DHT22;4320;51.498;6.556;2022-07-04T11:25:39;24.20;1.00
8565;DHT22;4320;51.498;6.556;2022-07-04T11:28:37;24.20;1.00
8565;DHT22;4320;51.498;6.556;2022-07-04T11:31:05;24.00;1.00
8565;DHT22;4320;51.498;6.556;2022-07-04T11:33:32;24.20;1.00
8565;DHT22;4320;51.498;6.556;2022-07-04T11:36:15;24.20;1.00
8565;DHT22;4320;51.498;6.556;2022-07-04T11:38:56;24.10;1.00
8565;DHT22;4320;51.498;6.556;2022-07-04T11:41:27;24.00;1.00
8565;DHT22;4320;51.498;6.556;2022-07-04T11:44:16;23.90;1.00
8565;DHT22;4320;51.498;6.556;2022-07-04T11:47:11;24.20;1.00
8565;DHT22;4320;51.498;6.556;2022-07-04T11:52:14;25.10;1.00
8565;DHT22;4320;51.498;6.556;2022-07-04T11:54:41;25.40;1.00
8565;DHT22;4320;51.498;6.556;2022-07-04T11:59:38;25.90;1.00
8565;DHT22;4320;51.498;6.556;2022-07-04T12:02:15;25.20;1.00
8565;DHT22;4320;51.498;6.556;2022-07-04T12:04:42;25.40;1.00
8565;DHT22;4320;51.498;6.556;2022-07-04T12:07:09;25.80;1.00
8565;DHT22;4320;51.498;6.556;2022-07-04T12:09:35;26.10;1.00
8565;DHT22;4320;51.498;6.556;2022-07-04T12:12:01;26.40;1.00
8565;DHT22;4320;51.498;6.556;2022-07-04T12:14:27;26.60;1.00
8565;DHT22;4320;51.498;6.556;2022-07-04T12:17:18;26.80;1.00
8565;DHT22;4320;51.498;6.556;2022-07-04T12:19:56;27.20;1.00
8565;DHT22;4320;51.498;6.556;2022-07-04T12:22:39;27.30;1.00
8565;DHT22;4320;51.498;6.556;2022-07-04T12:25:08;27.30;1.00
8565;DHT22;4320;51.498;6.556;2022-07-04T12:27:36;27.50;1.00
8565;DHT22;4320;51.498;6.556;2022-07-04T12:30:04;27.40;1.00
8565;DHT22;4320;51.498;6.556;2022-07-04T12:32:50;27.10;1.00
8565;DHT22;4320;51.498;6.556;2022-07-04T12:35:45;27.20;1.00
8565;DHT22;4320;51.498;6.556;2022-07-04T12:38:17;27.30;1.00
8565;DHT22;4320;51.498;6.556;2022-07-04T12:43:19;27.40;1.00
8565;DHT22;4320;51.498;6.556;2022-07-04T12:45:47;27.60;1.00
8565;DHT22;4320;51.498;6.556;2022-07-04T12:48:43;27.70;1.00
8565;DHT22;4320;51.498;6.556;2022-07-04T12:51:32;27.90;1.00
8565;DHT22;4320;51.498;6.556;2022-07-04T12:54:02;28.20;1.00
8565;DHT22;4320;51.498;6.556;2022-07-04T12:56:37;28.10;1.00
8565;DHT22;4320;51.498;6.556;2022-07-04T12:59:11;27.60;1.00
8565;DHT22;4320;51.498;6.556;2022-07-04T13:01:38;27.50;1.00
8565;DHT22;4320;51.498;6.556;2022-07-04T13:04:04;27.80;1.00
8565;DHT22;4320;51.498;6.556;2022-07-04T13:06:29;28.00;1.00
8565;DHT22;4320;51.498;6.556;2022-07-04T13:08:55;28.20;1.00
8565;DHT22;4320;51.498;6.556;2022-07-04T13:11:24;27.90;1.00
8565;DHT22;4320;51.498;6.556;2022-07-04T13:14:09;27.60;1.00
8565;DHT22;4320;51.498;6.556;2022-07-04T13:16:35;27.30;1.00
8565;DHT22;4320;51.498;6.556;2022-07-04T13:19:01;27.40;1.00
8565;DHT22;4320;51.498;6.556;2022-07-04T13:21:26;27.50;1.00
8565;DHT22;4320;51.498;6.556;2022-07-04T13:23:52;27.40;1.00
8565;DHT22;4320;51.498;6.556;2022-07-04T13:26:19;27.50;1.00
8565;DHT22;4320;51.498;6.556;2022-07-04T13:28:45;27.50;1.00
8565;DHT22;4320;51.498;6.556;2022-07-04T13:31:10;27.50;1.00
8565;DHT22;4320;51.498;6.556;2022-07-04T13:33:36;27.60;1.00
8565;DHT22;4320;51.498;6.556;2022-07-04T13:36:02;27.70;1.00
8565;DHT22;4320;51.498;6.556;2022-07-04T13:38:28;27.30;1.00
8565;DHT22;4320;51.498;6.556;2022-07-04T13:40:54;27.00;1.00
8565;DHT22;4320;51.498;6.556;2022-07-04T13:43:23;26.50;1.00
8565;DHT22;4320;51.498;6.556;2022-07-04T13:45:49;26.30;1.00
8565;DHT22;4320;51.498;6.556;2022-07-04T13:48:14;26.40;1.00
8565;DHT22;4320;51.498;6.556;2022-07-04T13:50:40;26.40;1.00
8565;DHT22;4320;51.498;6.556;2022-07-04T13:53:07;26.30;1.00
8565;DHT22;4320;51.498;6.556;2022-07-04T13:55:33;26.10;1.00
8565;DHT22;4320;51.498;6.556;2022-07-04T13:58:02;25.90;1.00
8565;DHT22;4320;51.498;6.556;2022-07-04T14:00:28;25.80;1.00
8565;DHT22;4320;51.498;6.556;2022-07-04T14:02:54;25.70;1.00
8565;DHT22;4320;51.498;6.556;2022-07-04T14:05:20;25.90;1.00
8565;DHT22;4320;51.498;6.556;2022-07-04T14:07:45;25.80;1.00
8565;DHT22;4320;51.498;6.556;2022-07-04T14:10:11;25.70;1.00
8565;DHT22;4320;51.498;6.556;2022-07-04T14:12:36;25.50;1.00
8565;DHT22;4320;51.498;6.556;2022-07-04T14:15:03;25.70;1.00
8565;DHT22;4320;51.498;6.556;2022-07-04T14:17:29;25.80;1.00
8565;DHT22;4320;51.498;6.556;2022-07-04T14:19:54;25.80;1.00
8565;DHT22;4320;51.498;6.556;2022-07-04T14:22:21;25.80;1.00
8565;DHT22;4320;51.498;6.556;2022-07-04T14:24:47;25.80;1.00
8565;DHT22;4320;51.498;6.556;2022-07-04T14:27:12;25.90;1.00
8565;DHT22;4320;51.498;6.556;2022-07-04T14:29:38;25.90;1.00
8565;DHT22;4320;51.498;6.556;2022-07-04T14:32:04;26.00;1.00
8565;DHT22;4320;51.498;6.556;2022-07-04T14:34:30;25.80;1.00
8565;DHT22;4320;51.498;6.556;2022-07-04T14:36:55;25.80;1.00
8565;DHT22;4320;51.498;6.556;2022-07-04T14:39:21;25.60;1.00
8565;DHT22;4320;51.498;6.556;2022-07-04T14:41:47;25.60;1.00
8565;DHT22;4320;51.498;6.556;2022-07-04T14:44:13;25.70;1.00
8565;DHT22;4320;51.498;6.556;2022-07-04T14:46:39;25.80;1.00
8565;DHT22;4320;51.498;6.556;2022-07-04T14:49:05;25.80;1.00
8565;DHT22;4320;51.498;6.556;2022-07-04T14:51:30;25.80;1.00
8565;DHT22;4320;51.498;6.556;2022-07-04T14:53:56;25.90;1.00
8565;DHT22;4320;51.498;6.556;2022-07-04T14:56:22;25.80;1.00
8565;DHT22;4320;51.498;6.556;2022-07-04T14:58:47;25.80;1.00
8565;DHT22;4320;51.498;6.556;2022-07-04T15:01:13;25.60;1.00
8565;DHT22;4320;51.498;6.556;2022-07-04T15:03:39;25.50;1.00
8565;DHT22;4320;51.498;6.556;2022-07-04T15:06:04;25.40;1.00
8565;DHT22;4320;51.498;6.556;2022-07-04T15:08:30;25.30;1.00
8565;DHT22;4320;51.498;6.556;2022-07-04T15:10:56;25.20;1.00
8565;DHT22;4320;51.498;6.556;2022-07-04T15:13:21;25.30;1.00
8565;DHT22;4320;51.498;6.556;2022-07-04T15:15:47;25.40;1.00
8565;DHT22;4320;51.498;6.556;2022-07-04T15:18:13;25.60;1.00
8565;DHT22;4320;51.498;6.556;2022-07-04T15:20:39;25.70;1.00
8565;DHT22;4320;51.498;6.556;2022-07-04T15:23:24;25.80;1.00
8565;DHT22;4320;51.498;6.556;2022-07-04T15:26:08;25.80;1.00
8565;DHT22;4320;51.498;6.556;2022-07-04T15:28:34;25.90;1.00
8565;DHT22;4320;51.498;6.556;2022-07-04T15:31:00;25.80;1.00
8565;DHT22;4320;51.498;6.556;2022-07-04T15:33:26;25.60;1.00
8565;DHT22;4320;51.498;6.556;2022-07-04T15:35:55;25.60;1.00
8565;DHT22;4320;51.498;6.556;2022-07-04T15:38:21;25.60;1.00
8565;DHT22;4320;51.498;6.556;2022-07-04T15:40:47;25.80;1.00
8565;DHT22;4320;51.498;6.556;2022-07-04T15:43:13;25.80;1.00
8565;DHT22;4320;51.498;6.556;2022-07-04T15:45:39;25.80;1.00
8565;DHT22;4320;51.498;6.556;2022-07-04T15:48:04;25.80;1.00
8565;DHT22;4320;51.498;6.556;2022-07-04T15:50:30;25.80;1.00
8565;DHT22;4320;51.498;6.556;2022-07-04T15:52:56;25.70;1.00
8565;DHT22;4320;51.498;6.556;2022-07-04T15:55:21;25.60;1.00
8565;DHT22;4320;51.498;6.556;2022-07-04T15:57:47;25.60;1.00
8565;DHT22;4320;51.498;6.556;2022-07-04T16:00:13;25.60;1.00
8565;DHT22;4320;51.498;6.556;2022-07-04T16:02:39;25.60;1.00
8565;DHT22;4320;51.498;6.556;2022-07-04T16:05:05;25.60;1.00
8565;DHT22;4320;51.498;6.556;2022-07-04T16:07:33;25.60;1.00
8565;DHT22;4320;51.498;6.556;2022-07-04T16:09:59;25.70;1.00
8565;DHT22;4320;51.498;6.556;2022-07-04T16:12:24;25.60;1.00
8565;DHT22;4320;51.498;6.556;2022-07-04T16:14:50;25.40;1.00
8565;DHT22;4320;51.498;6.556;2022-07-04T16:17:16;25.20;1.00
8565;DHT22;4320;51.498;6.556;2022-07-04T16:19:41;25.30;1.00
8565;DHT22;4320;51.498;6.556;2022-07-04T16:22:07;25.40;1.00
8565;DHT22;4320;51.498;6.556;2022-07-04T16:24:32;25.30;1.00
8565;DHT22;4320;51.498;6.556;2022-07-04T16:26:58;25.20;1.00
8565;DHT22;4320;51.498;6.556;2022-07-04T16:29:24;25.10;1.00
8565;DHT22;4320;51.498;6.556;2022-07-04T16:31:49;25.10;1.00
8565;DHT22;4320;51.498;6.556;2022-07-04T16:34:15;25.00;1.00
8565;DHT22;4320;51.498;6.556;2022-07-04T16:36:41;25.00;1.00
8565;DHT22;4320;51.498;6.556;2022-07-04T16:39:07;25.00;1.00
8565;DHT22;4320;51.498;6.556;2022-07-04T16:41:33;25.10;1.00
8565;DHT22;4320;51.498;6.556;2022-07-04T16:43:58;25.20;1.00
8565;DHT22;4320;51.498;6.556;2022-07-04T16:46:24;25.30;1.00